createdAt,value
2018-05-18T00:00:48.290Z,37.77
2018-05-18T00:01:58.259Z,37.67
2018-05-18T00:03:07.757Z,37.77
2018-05-18T00:04:17.488Z,37.67
2018-05-18T00:05:26.958Z,37.67
2018-05-18T00:06:36.441Z,37.67
2018-05-18T00:07:45.613Z,37.67
2018-05-18T00:08:55.084Z,37.67
2018-05-18T00:10:04.511Z,37.58
2018-05-18T00:11:14.512Z,37.77
2018-05-18T00:12:23.708Z,37.58
2018-05-18T00:13:32.882Z,37.58
2018-05-18T00:14:42.832Z,37.38
2018-05-18T00:15:52.001Z,37.48
2018-05-18T00:17:00.962Z,37.38
2018-05-18T00:18:09.871Z,37.29
2018-05-18T00:19:19.303Z,37.29
2018-05-18T00:20:28.735Z,37.48
2018-05-18T00:21:37.888Z,37.29
2018-05-18T00:22:47.126Z,37.29
2018-05-18T00:23:56.296Z,37.29
2018-05-18T00:25:05.451Z,37.38
2018-05-18T00:26:15.148Z,37.38
2018-05-18T00:27:24.339Z,37.38
2018-05-18T00:28:33.533Z,37.38
2018-05-18T00:29:43.231Z,37.29
2018-05-18T00:30:52.964Z,37.29
2018-05-18T00:32:02.651Z,37.29
2018-05-18T00:33:12.134Z,37.29
2018-05-18T00:34:21.880Z,37.19
2018-05-18T00:35:31.295Z,37.29
2018-05-18T00:36:40.969Z,37.29
2018-05-18T00:37:50.420Z,37.38
2018-05-18T00:39:00.128Z,37.19
2018-05-18T00:40:09.836Z,37.38
2018-05-18T00:41:19.021Z,37.29
2018-05-18T00:42:28.753Z,37.29
2018-05-18T00:43:38.433Z,37.29
2018-05-18T00:44:48.152Z,37.38
2018-05-18T00:45:57.585Z,37.29
2018-05-18T00:47:06.770Z,37.29
2018-05-18T00:48:16.201Z,37.29
2018-05-18T00:49:25.644Z,37.19
2018-05-18T00:50:35.603Z,37.19
2018-05-18T00:51:45.024Z,37.38
2018-05-18T00:52:54.523Z,37.1
2018-05-18T00:54:03.956Z,37
2018-05-18T00:55:13.647Z,37
2018-05-18T00:56:23.075Z,36.9
2018-05-18T00:57:33.032Z,37.1
2018-05-18T00:58:42.458Z,36.9
2018-05-18T00:59:51.635Z,37
2018-05-18T01:01:01.064Z,36.9
2018-05-18T01:02:09.980Z,37.19
2018-05-18T01:03:19.175Z,36.9
2018-05-18T01:04:28.910Z,37
2018-05-18T01:05:38.346Z,37.1
2018-05-18T01:06:47.790Z,37.19
2018-05-18T01:07:56.964Z,37.19
2018-05-18T01:09:06.955Z,37.19
2018-05-18T01:10:16.148Z,37.29
2018-05-18T01:11:25.150Z,37.19
2018-05-18T01:12:34.620Z,37.19
2018-05-18T01:13:44.616Z,37.19
2018-05-18T01:14:54.160Z,37.38
2018-05-18T01:16:03.880Z,37.19
2018-05-18T01:17:13.326Z,37.19
2018-05-18T01:18:23.016Z,37.19
2018-05-18T01:19:32.971Z,37.1
2018-05-18T01:20:42.215Z,36.9
2018-05-18T01:21:51.672Z,36.9
2018-05-18T01:23:01.095Z,37
2018-05-18T01:24:10.538Z,37.19
2018-05-18T01:25:20.257Z,37
2018-05-18T01:26:29.513Z,37
2018-05-18T01:27:39.200Z,36.9
2018-05-18T01:28:48.351Z,37
2018-05-18T01:29:58.034Z,36.9
2018-05-18T01:31:07.207Z,37.1
2018-05-18T01:32:16.463Z,36.9
2018-05-18T01:33:25.899Z,37.1
2018-05-18T01:34:35.062Z,37.1
2018-05-18T01:35:44.234Z,37
2018-05-18T01:36:53.826Z,37.1
2018-05-18T01:38:02.471Z,37
2018-05-18T01:39:11.480Z,37.1
2018-05-18T01:40:20.944Z,37
2018-05-18T01:41:30.119Z,37.1
2018-05-18T01:42:39.289Z,37
2018-05-18T01:43:48.716Z,36.9
2018-05-18T01:44:58.661Z,37
2018-05-18T01:46:08.367Z,37.1
2018-05-18T01:47:17.791Z,36.9
2018-05-18T01:48:27.239Z,36.8
2018-05-18T01:49:36.904Z,37
2018-05-18T01:50:46.328Z,37
2018-05-18T01:51:55.741Z,36.8
2018-05-18T01:53:05.418Z,36.8
2018-05-18T01:54:14.622Z,36.71
2018-05-18T01:55:24.042Z,37.1
2018-05-18T01:56:33.473Z,36.9
2018-05-18T01:57:42.645Z,36.61
2018-05-18T01:58:52.093Z,36.42
2018-05-18T02:00:01.773Z,36.8
2018-05-18T02:01:11.267Z,36.71
2018-05-18T02:02:20.678Z,36.71
2018-05-18T02:03:30.416Z,36.71
2018-05-18T02:04:40.383Z,36.8
2018-05-18T02:05:50.071Z,36.61
2018-05-18T02:06:59.779Z,36.71
2018-05-18T02:08:09.221Z,36.9
2018-05-18T02:09:18.909Z,36.9
2018-05-18T02:10:28.339Z,36.71
2018-05-18T02:11:37.507Z,37
2018-05-18T02:12:46.713Z,36.9
2018-05-18T02:13:56.158Z,36.8
2018-05-18T02:15:05.584Z,36.8
2018-05-18T02:16:15.014Z,36.8
2018-05-18T02:17:24.219Z,36.71
2018-05-18T02:18:34.185Z,36.71
2018-05-18T02:19:43.609Z,36.71
2018-05-18T02:20:53.373Z,36.71
2018-05-18T02:22:03.075Z,36.8
2018-05-18T02:23:12.754Z,36.9
2018-05-18T02:24:21.930Z,36.8
2018-05-18T02:25:31.087Z,36.9
2018-05-18T02:26:40.513Z,36.71
2018-05-18T02:27:50.229Z,36.71
2018-05-18T02:28:59.166Z,36.71
2018-05-18T02:30:08.594Z,36.71
2018-05-18T02:31:17.765Z,36.71
2018-05-18T02:32:27.705Z,36.71
2018-05-18T02:33:37.175Z,36.71
2018-05-18T02:34:47.168Z,36.71
2018-05-18T02:35:56.424Z,36.71
2018-05-18T02:37:06.431Z,36.61
2018-05-18T02:38:15.633Z,36.61
2018-05-18T02:39:25.322Z,36.8
2018-05-18T02:40:34.758Z,36.71
2018-05-18T02:41:44.001Z,36.8
2018-05-18T02:42:52.917Z,36.59
2018-05-18T02:44:02.387Z,36.8
2018-05-18T02:45:11.327Z,36.52
2018-05-18T02:46:20.754Z,36.69
2018-05-18T02:47:30.784Z,36.8
2018-05-18T02:48:40.746Z,36.69
2018-05-18T02:49:50.471Z,36.3
2018-05-18T02:50:59.918Z,36.71
2018-05-18T02:52:09.365Z,36.71
2018-05-18T02:53:19.197Z,36.59
2018-05-18T02:54:28.387Z,36.8
2018-05-18T02:55:38.087Z,36.52
2018-05-18T02:56:48.060Z,36.69
2018-05-18T02:57:57.755Z,36.5
2018-05-18T02:59:07.214Z,36.4
2018-05-18T03:00:16.755Z,36.5
2018-05-18T03:01:25.929Z,36.4
2018-05-18T03:02:35.361Z,36.59
2018-05-18T03:03:44.877Z,36.61
2018-05-18T03:04:54.364Z,36.52
2018-05-18T03:06:03.850Z,36.4
2018-05-18T03:07:13.519Z,36.69
2018-05-18T03:08:22.712Z,36.71
2018-05-18T03:09:32.188Z,36.69
2018-05-18T03:10:41.886Z,36.79
2018-05-18T03:11:50.809Z,36.79
2018-05-18T03:13:00.242Z,36.88
2018-05-18T03:14:10.245Z,36.69
2018-05-18T03:15:19.438Z,36.69
2018-05-18T03:16:28.853Z,37.08
2018-05-18T03:17:38.011Z,36.98
2018-05-18T03:18:46.946Z,37.08
2018-05-18T03:19:56.368Z,36.88
2018-05-18T03:21:06.154Z,37.08
2018-05-18T03:22:16.301Z,37.06
2018-05-18T03:23:25.459Z,37.15
2018-05-18T03:24:34.895Z,37.15
2018-05-18T03:25:44.311Z,37.15
2018-05-18T03:26:53.267Z,36.96
2018-05-18T03:28:02.475Z,37.25
2018-05-18T03:29:12.424Z,37.15
2018-05-18T03:30:21.843Z,37.15
2018-05-18T03:31:31.273Z,37.15
2018-05-18T03:32:40.187Z,37.15
2018-05-18T03:33:49.591Z,37.06
2018-05-18T03:34:58.821Z,37.15
2018-05-18T03:36:08.675Z,37.06
2018-05-18T03:37:18.094Z,37.15
2018-05-18T03:38:27.807Z,37.06
2018-05-18T03:39:37.468Z,36.96
2018-05-18T03:40:46.377Z,37.35
2018-05-18T03:41:55.813Z,37.15
2018-05-18T03:43:05.000Z,37.06
2018-05-18T03:44:14.437Z,37.06
2018-05-18T03:45:23.889Z,37.45
2018-05-18T03:46:33.585Z,37.06
2018-05-18T03:47:43.033Z,37.04
2018-05-18T03:48:52.726Z,37.23
2018-05-18T03:50:02.424Z,37.23
2018-05-18T03:51:11.412Z,37.23
2018-05-18T03:52:21.116Z,37.23
2018-05-18T03:53:30.030Z,37.23
2018-05-18T03:54:39.232Z,37.23
2018-05-18T03:55:48.923Z,37.23
2018-05-18T03:56:58.604Z,37.23
2018-05-18T03:58:07.785Z,37.13
2018-05-18T03:59:17.333Z,37.23
2018-05-18T04:00:27.030Z,37.13
2018-05-18T04:01:36.491Z,37.04
2018-05-18T04:02:46.189Z,37.13
2018-05-18T04:03:55.621Z,37.13
2018-05-18T04:05:05.590Z,37.13
2018-05-18T04:06:14.532Z,37.23
2018-05-18T04:07:23.761Z,37.04
2018-05-18T04:08:33.474Z,37.13
2018-05-18T04:09:42.920Z,36.85
2018-05-18T04:10:52.354Z,37.04
2018-05-18T04:12:02.307Z,36.85
2018-05-18T04:13:11.465Z,36.94
2018-05-18T04:14:20.976Z,36.85
2018-05-18T04:15:30.415Z,36.94
2018-05-18T04:16:40.088Z,37.13
2018-05-18T04:17:49.301Z,37.04
2018-05-18T04:18:58.484Z,36.85
2018-05-18T04:20:07.126Z,36.93
2018-05-18T04:21:16.046Z,36.85
2018-05-18T04:22:25.474Z,36.85
2018-05-18T04:23:34.903Z,37.02
2018-05-18T04:24:44.378Z,36.83
2018-05-18T04:25:54.349Z,36.93
2018-05-18T04:27:04.088Z,36.94
2018-05-18T04:28:13.796Z,36.93
2018-05-18T04:29:23.495Z,36.83
2018-05-18T04:30:32.448Z,36.93
2018-05-18T04:31:42.250Z,36.83
2018-05-18T04:32:51.048Z,36.93
2018-05-18T04:34:00.809Z,37.02
2018-05-18T04:35:09.747Z,37.02
2018-05-18T04:36:18.915Z,37.12
2018-05-18T04:37:28.621Z,37.12
2018-05-18T04:38:38.056Z,37.12
2018-05-18T04:39:47.486Z,37.02
2018-05-18T04:40:56.922Z,37.02
2018-05-18T04:42:06.099Z,37.12
2018-05-18T04:43:15.346Z,37.12
2018-05-18T04:44:25.409Z,37.02
2018-05-18T04:45:35.090Z,37.02
2018-05-18T04:46:44.572Z,37.02
2018-05-18T04:47:54.295Z,37.02
2018-05-18T04:49:03.734Z,37.02
2018-05-18T04:50:13.444Z,37.12
2018-05-18T04:51:22.373Z,37.12
2018-05-18T04:52:31.829Z,36.83
2018-05-18T04:53:41.006Z,36.83
2018-05-18T04:54:50.933Z,37.02
2018-05-18T04:56:00.109Z,37.02
2018-05-18T04:57:09.818Z,37.12
2018-05-18T04:58:19.784Z,36.93
2018-05-18T04:59:29.032Z,36.73
2018-05-18T05:00:38.200Z,36.63
2018-05-18T05:01:47.951Z,36.63
2018-05-18T05:02:56.852Z,36.54
2018-05-18T05:04:06.519Z,36.73
2018-05-18T05:05:16.471Z,36.44
2018-05-18T05:06:25.912Z,36.35
2018-05-18T05:07:35.323Z,36.44
2018-05-18T05:08:44.498Z,36.36
2018-05-18T05:09:53.408Z,36.17
2018-05-18T05:11:02.833Z,36.27
2018-05-18T05:12:12.319Z,36.17
2018-05-18T05:13:21.731Z,36.17
2018-05-18T05:14:31.173Z,35.88
2018-05-18T05:15:40.868Z,35.98
2018-05-18T05:16:50.071Z,36.07
2018-05-18T05:17:59.900Z,35.88
2018-05-18T05:19:09.663Z,35.78
2018-05-18T05:20:19.671Z,35.98
2018-05-18T05:21:29.370Z,35.88
2018-05-18T05:22:58.257Z,35.98
2018-05-18T05:24:07.216Z,35.69
2018-05-18T05:25:16.404Z,35.78
2018-05-18T05:26:25.597Z,35.69
2018-05-18T05:27:35.014Z,35.59
2018-05-18T05:28:44.200Z,35.5
2018-05-18T05:29:53.907Z,35.5
2018-05-18T05:31:03.666Z,35.5
2018-05-18T05:32:12.857Z,35.59
2018-05-18T05:33:22.558Z,35.5
2018-05-18T05:34:31.842Z,35.5
2018-05-18T05:35:41.308Z,35.5
2018-05-18T05:36:51.218Z,35.5
2018-05-18T05:38:00.464Z,35.5
2018-05-18T05:39:09.683Z,35.5
2018-05-18T05:40:19.465Z,35.59
2018-05-18T05:41:29.416Z,35.5
2018-05-18T05:42:39.252Z,35.5
2018-05-18T05:43:48.429Z,35.5
2018-05-18T05:44:58.130Z,35.5
2018-05-18T05:46:07.859Z,35.3
2018-05-18T05:47:17.552Z,35.3
2018-05-18T05:48:27.181Z,35.4
2018-05-18T05:49:36.385Z,35.4
2018-05-18T05:50:45.811Z,35.21
2018-05-18T05:51:54.967Z,35.3
2018-05-18T05:53:04.710Z,35.21
2018-05-18T05:54:13.889Z,35.4
2018-05-18T05:55:23.575Z,35.21
2018-05-18T05:56:33.259Z,35.11
2018-05-18T05:57:43.212Z,35.3
2018-05-18T05:58:52.658Z,35.3
2018-05-18T06:00:02.098Z,35.02
2018-05-18T06:01:12.116Z,35.21
2018-05-18T06:02:21.557Z,35.11
2018-05-18T06:03:31.491Z,35.21
2018-05-18T06:04:40.965Z,35.3
2018-05-18T06:05:50.412Z,35.3
2018-05-18T06:06:59.865Z,35.21
2018-05-18T06:08:09.297Z,35.21
2018-05-18T06:09:18.737Z,35.21
2018-05-18T06:10:27.899Z,35.21
2018-05-18T06:11:37.654Z,35.02
2018-05-18T06:12:46.591Z,35.11
2018-05-18T06:13:55.489Z,35.11
2018-05-18T06:15:04.684Z,35.11
2018-05-18T06:16:14.420Z,35.21
2018-05-18T06:17:24.117Z,35.02
2018-05-18T06:18:33.279Z,35.02
2018-05-18T06:19:42.468Z,35.02
2018-05-18T06:20:52.145Z,35.02
2018-05-18T06:22:01.862Z,35.02
2018-05-18T06:23:10.752Z,35.11
2018-05-18T06:24:20.464Z,35.11
2018-05-18T06:25:29.918Z,35.02
2018-05-18T06:26:39.087Z,35.21
2018-05-18T06:27:48.282Z,35.02
2018-05-18T06:28:57.970Z,35.13
2018-05-18T06:30:07.435Z,35.22
2018-05-18T06:31:16.690Z,35.22
2018-05-18T06:32:26.464Z,35.13
2018-05-18T06:33:35.885Z,35.32
2018-05-18T06:34:45.179Z,35.13
2018-05-18T06:35:54.946Z,35.22
2018-05-18T06:37:03.892Z,35.13
2018-05-18T06:38:13.423Z,35.13
2018-05-18T06:39:22.866Z,35.22
2018-05-18T06:40:32.347Z,35.32
2018-05-18T06:41:42.056Z,35.22
2018-05-18T06:42:51.098Z,35.22
2018-05-18T06:44:00.610Z,35.22
2018-05-18T06:45:10.057Z,35.32
2018-05-18T06:46:19.490Z,34.84
2018-05-18T06:47:29.182Z,34.74
2018-05-18T06:48:37.876Z,34.84
2018-05-18T06:49:47.586Z,34.84
2018-05-18T06:50:57.085Z,34.84
2018-05-18T06:52:06.061Z,34.74
2018-05-18T06:53:14.993Z,34.84
2018-05-18T06:54:24.227Z,34.84
2018-05-18T06:55:34.198Z,34.55
2018-05-18T06:56:43.106Z,34.55
2018-05-18T06:57:52.838Z,34.55
2018-05-18T06:59:02.273Z,34.55
2018-05-18T07:00:11.443Z,34.64
2018-05-18T07:01:20.892Z,34.55
2018-05-18T07:02:30.609Z,34.74
2018-05-18T07:03:39.778Z,34.74
2018-05-18T07:04:48.977Z,34.64
2018-05-18T07:05:58.145Z,34.64
2018-05-18T07:07:07.569Z,34.55
2018-05-18T07:08:16.747Z,34.64
2018-05-18T07:09:25.975Z,34.64
2018-05-18T07:10:36.061Z,34.64
2018-05-18T07:11:45.888Z,34.55
2018-05-18T07:12:55.386Z,34.55
2018-05-18T07:14:04.628Z,34.64
2018-05-18T07:15:14.609Z,34.55
2018-05-18T07:16:24.142Z,34.64
2018-05-18T07:17:34.061Z,34.64
2018-05-18T07:18:43.788Z,34.55
2018-05-18T07:19:53.474Z,34.64
2018-05-18T07:21:02.662Z,34.64
2018-05-18T07:22:12.146Z,34.64
2018-05-18T07:23:21.306Z,34.64
2018-05-18T07:24:30.488Z,34.55
2018-05-18T07:25:39.659Z,34.45
2018-05-18T07:26:49.345Z,34.64
2018-05-18T07:27:58.808Z,34.64
2018-05-18T07:29:08.242Z,34.64
2018-05-18T07:30:17.465Z,34.55
2018-05-18T07:31:27.176Z,34.64
2018-05-18T07:32:36.639Z,34.55
2018-05-18T07:33:46.056Z,34.64
2018-05-18T07:34:55.745Z,34.74
2018-05-18T07:36:04.674Z,34.64
2018-05-18T07:37:14.289Z,34.74
2018-05-18T07:38:23.710Z,34.64
2018-05-18T07:39:33.134Z,34.55
2018-05-18T07:40:42.560Z,34.64
2018-05-18T07:41:52.030Z,34.55
2018-05-18T07:43:01.453Z,34.64
2018-05-18T07:44:11.399Z,34.55
2018-05-18T07:45:20.840Z,34.64
2018-05-18T07:46:30.283Z,34.64
2018-05-18T07:47:39.295Z,34.74
2018-05-18T07:48:48.480Z,34.55
2018-05-18T07:49:57.681Z,34.55
2018-05-18T07:51:07.297Z,34.74
2018-05-18T07:52:17.217Z,34.64
2018-05-18T07:53:26.442Z,34.74
2018-05-18T07:54:36.354Z,34.64
2018-05-18T07:55:46.043Z,34.55
2018-05-18T07:56:55.483Z,34.64
2018-05-18T07:58:04.960Z,34.55
2018-05-18T07:59:14.120Z,34.55
2018-05-18T08:00:23.575Z,34.74
2018-05-18T08:01:32.506Z,34.66
2018-05-18T08:02:42.258Z,34.74
2018-05-18T08:03:51.419Z,34.64
2018-05-18T08:05:01.106Z,34.64
2018-05-18T08:06:10.523Z,34.55
2018-05-18T08:07:20.228Z,34.64
2018-05-18T08:08:29.575Z,34.66
2018-05-18T08:09:39.257Z,34.74
2018-05-18T08:10:49.192Z,34.55
2018-05-18T08:11:58.367Z,34.64
2018-05-18T08:13:08.047Z,34.55
2018-05-18T08:14:17.851Z,34.76
2018-05-18T08:15:27.060Z,34.66
2018-05-18T08:16:36.277Z,34.76
2018-05-18T08:17:45.524Z,34.76
2018-05-18T08:18:55.048Z,34.56
2018-05-18T08:20:05.635Z,34.64
2018-05-18T08:21:14.853Z,34.66
2018-05-18T08:22:24.793Z,34.66
2018-05-18T08:23:34.400Z,34.66
2018-05-18T08:24:43.619Z,34.55
2018-05-18T08:25:53.198Z,34.66
2018-05-18T08:27:03.106Z,34.66
2018-05-18T08:28:13.142Z,34.56
2018-05-18T08:29:22.333Z,34.66
2018-05-18T08:30:32.122Z,34.66
2018-05-18T08:31:41.371Z,34.86
2018-05-18T08:32:51.125Z,34.56
2018-05-18T08:34:00.565Z,34.56
2018-05-18T08:35:10.265Z,34.66
2018-05-18T08:36:19.961Z,34.76
2018-05-18T08:37:29.408Z,34.76
2018-05-18T08:38:38.840Z,34.86
2018-05-18T08:39:47.764Z,34.76
2018-05-18T08:40:57.473Z,34.66
2018-05-18T08:42:07.194Z,34.86
2018-05-18T08:43:16.710Z,34.76
2018-05-18T08:44:25.966Z,34.76
2018-05-18T08:45:35.372Z,34.76
2018-05-18T08:46:44.579Z,34.76
2018-05-18T08:47:54.275Z,34.76
2018-05-18T08:49:03.701Z,34.86
2018-05-18T08:50:13.465Z,34.86
2018-05-18T08:51:22.982Z,34.76
2018-05-18T08:52:32.657Z,34.76
2018-05-18T08:53:42.136Z,34.76
2018-05-18T08:54:50.801Z,34.76
2018-05-18T08:55:59.712Z,34.86
2018-05-18T08:57:09.698Z,34.86
2018-05-18T08:58:19.671Z,35.34
2018-05-18T08:59:29.121Z,34.86
2018-05-18T09:00:38.610Z,34.86
2018-05-18T09:01:48.457Z,34.76
2018-05-18T09:02:57.679Z,34.86
2018-05-18T09:04:07.150Z,34.76
2018-05-18T09:05:16.617Z,34.86
2018-05-18T09:06:26.063Z,34.86
2018-05-18T09:07:35.494Z,35.34
2018-05-18T09:08:45.182Z,34.76
2018-05-18T09:09:54.662Z,34.76
2018-05-18T09:11:04.373Z,34.86
2018-05-18T09:12:13.902Z,34.76
2018-05-18T09:13:23.398Z,34.86
2018-05-18T09:14:32.832Z,34.76
2018-05-18T09:15:42.312Z,35.24
2018-05-18T09:16:52.153Z,34.76
2018-05-18T09:18:01.599Z,35.24
2018-05-18T09:19:11.325Z,34.86
2018-05-18T09:20:21.045Z,34.86
2018-05-18T09:21:30.479Z,35.24
2018-05-18T09:22:39.704Z,35.24
2018-05-18T09:23:48.642Z,35.34
2018-05-18T09:24:58.071Z,35.24
2018-05-18T09:26:07.066Z,34.76
2018-05-18T09:27:15.973Z,35.14
2018-05-18T09:28:25.430Z,35.24
2018-05-18T09:29:34.656Z,35.24
2018-05-18T09:30:44.121Z,35.24
2018-05-18T09:31:53.819Z,35.24
2018-05-18T09:33:03.093Z,35.05
2018-05-18T09:34:13.066Z,35.14
2018-05-18T09:35:23.050Z,35.24
2018-05-18T09:36:32.602Z,35.14
2018-05-18T09:37:42.386Z,35.34
2018-05-18T09:38:51.879Z,35.34
2018-05-18T09:40:01.195Z,35.14
2018-05-18T09:41:10.448Z,35.24
2018-05-18T09:42:20.022Z,35.24
2018-05-18T09:43:30.082Z,35.24
2018-05-18T09:44:39.615Z,35.24
2018-05-18T09:45:48.569Z,35.14
2018-05-18T09:46:58.096Z,35.14
2018-05-18T09:48:07.935Z,35.24
2018-05-18T09:49:17.521Z,35.14
2018-05-18T09:50:26.731Z,35.34
2018-05-18T09:51:35.714Z,35.14
2018-05-18T09:52:45.242Z,35.24
2018-05-18T09:53:54.993Z,35.24
2018-05-18T09:55:04.661Z,35.34
2018-05-18T09:56:15.082Z,35.34
2018-05-18T09:57:24.826Z,35.14
2018-05-18T09:58:34.128Z,35.24
2018-05-18T09:59:43.648Z,35.24
2018-05-18T10:00:53.430Z,35.24
2018-05-18T10:02:02.676Z,35.14
2018-05-18T10:03:12.168Z,35.24
2018-05-18T10:04:21.385Z,35.14
2018-05-18T10:05:30.631Z,35.24
2018-05-18T10:06:39.625Z,35.24
2018-05-18T10:07:49.110Z,35.24
2018-05-18T10:08:58.302Z,35.24
2018-05-18T10:10:07.812Z,35.24
2018-05-18T10:11:17.077Z,35.14
2018-05-18T10:12:26.913Z,35.24
2018-05-18T10:13:36.520Z,35.24
2018-05-18T10:14:45.990Z,35.14
2018-05-18T10:15:55.597Z,35.24
2018-05-18T10:17:05.254Z,35.24
2018-05-18T10:18:15.008Z,35.24
2018-05-18T10:19:24.208Z,35.14
2018-05-18T10:20:33.682Z,35.14
2018-05-18T10:21:43.176Z,35.14
2018-05-18T10:22:52.706Z,35.14
2018-05-18T10:24:02.503Z,35.24
2018-05-18T10:25:12.261Z,35.24
2018-05-18T10:26:21.577Z,35.05
2018-05-18T10:27:31.640Z,35.24
2018-05-18T10:28:40.989Z,35.14
2018-05-18T10:29:50.840Z,35.05
2018-05-18T10:31:00.142Z,35.14
2018-05-18T10:32:09.909Z,35.14
2018-05-18T10:33:19.073Z,35.05
2018-05-18T10:34:28.548Z,35.05
2018-05-18T10:35:37.983Z,35.14
2018-05-18T10:36:47.160Z,35.14
2018-05-18T10:37:56.075Z,35.05
2018-05-18T10:39:05.250Z,35.05
2018-05-18T10:40:14.442Z,35.05
2018-05-18T10:41:23.644Z,34.95
2018-05-18T10:42:33.062Z,35.14
2018-05-18T10:43:42.552Z,35.14
2018-05-18T10:44:52.203Z,35.05
2018-05-18T10:46:01.653Z,35.14
2018-05-18T10:47:10.848Z,35.05
2018-05-18T10:48:20.327Z,35.05
2018-05-18T10:49:29.907Z,35.14
2018-05-18T10:50:39.521Z,35.05
2018-05-18T10:51:49.227Z,35.05
2018-05-18T10:52:58.218Z,35.05
2018-05-18T10:54:07.549Z,35.05
2018-05-18T10:55:17.271Z,35.24
2018-05-18T10:56:26.457Z,35.14
2018-05-18T10:57:36.159Z,35.24
2018-05-18T10:58:46.120Z,35.05
2018-05-18T10:59:55.560Z,35.05
2018-05-18T11:01:05.263Z,35.05
2018-05-18T11:02:15.006Z,35.14
2018-05-18T11:03:24.684Z,35.05
2018-05-18T11:04:34.185Z,35.14
2018-05-18T11:05:43.349Z,35.14
2018-05-18T11:06:53.133Z,35.05
2018-05-18T11:08:03.164Z,35.05
2018-05-18T11:09:12.903Z,35.14
2018-05-18T11:10:22.608Z,35.05
2018-05-18T11:11:32.129Z,35.14
2018-05-18T11:12:41.597Z,35.14
2018-05-18T11:13:51.116Z,35.14
2018-05-18T11:15:01.195Z,35.14
2018-05-18T11:16:09.865Z,35.14
2018-05-18T11:17:19.606Z,35.14
2018-05-18T11:18:29.077Z,35.14
2018-05-18T11:19:38.761Z,35.05
2018-05-18T11:20:47.940Z,35.14
2018-05-18T11:21:56.880Z,35.05
2018-05-18T11:23:06.055Z,35.05
2018-05-18T11:24:15.991Z,35.05
2018-05-18T11:25:25.416Z,35.05
2018-05-18T11:26:35.143Z,35.05
2018-05-18T11:27:44.283Z,35.05
2018-05-18T11:28:54.476Z,35.05
2018-05-18T11:30:04.156Z,35.05
2018-05-18T11:31:13.845Z,35.14
2018-05-18T11:32:23.809Z,35.05
2018-05-18T11:33:33.510Z,35.05
2018-05-18T11:34:42.705Z,35.24
2018-05-18T11:35:52.464Z,35.05
2018-05-18T11:37:01.904Z,35.14
2018-05-18T11:38:11.327Z,35.24
2018-05-18T11:39:20.269Z,35.24
2018-05-18T11:40:29.718Z,35.24
2018-05-18T11:41:39.409Z,35.24
2018-05-18T11:42:48.830Z,35.24
2018-05-18T11:43:58.296Z,34.95
2018-05-18T11:45:07.739Z,34.95
2018-05-18T11:46:16.892Z,35.24
2018-05-18T11:47:26.839Z,35.24
2018-05-18T11:48:36.509Z,34.95
2018-05-18T11:49:45.928Z,35.24
2018-05-18T11:50:55.120Z,35.05
2018-05-18T11:52:04.541Z,35.24
2018-05-18T11:53:14.293Z,35.24
2018-05-18T11:54:24.013Z,35.05
2018-05-18T11:55:34.259Z,35.14
2018-05-18T11:56:44.623Z,35.14
2018-05-18T11:57:54.042Z,35.14
2018-05-18T11:59:03.465Z,35.24
2018-05-18T12:00:12.662Z,35.24
2018-05-18T12:01:22.149Z,35.14
2018-05-18T12:02:31.403Z,35.24
2018-05-18T12:03:41.087Z,35.24
2018-05-18T12:04:50.342Z,35.14
2018-05-18T12:05:59.792Z,35.34
2018-05-18T12:07:09.221Z,35.24
2018-05-18T12:08:18.772Z,35.24
2018-05-18T12:09:28.261Z,35.24
2018-05-18T12:10:37.414Z,35.24
2018-05-18T12:11:46.856Z,35.24
2018-05-18T12:12:56.037Z,35.14
2018-05-18T12:14:05.808Z,35.34
2018-05-18T12:15:15.210Z,35.14
2018-05-18T12:16:24.927Z,35.24
2018-05-18T12:17:34.599Z,35.14
2018-05-18T12:18:44.055Z,35.24
2018-05-18T12:19:53.306Z,35.14
2018-05-18T12:21:02.511Z,35.24
2018-05-18T12:22:11.983Z,35.24
2018-05-18T12:23:21.731Z,35.34
2018-05-18T12:24:30.956Z,35.14
2018-05-18T12:25:39.914Z,35.14
2018-05-18T12:26:49.390Z,35.14
2018-05-18T12:27:58.844Z,35.14
2018-05-18T12:29:07.754Z,35.24
2018-05-18T12:30:17.713Z,35.14
2018-05-18T12:31:26.989Z,35.14
2018-05-18T12:32:37.238Z,35.34
2018-05-18T12:33:46.715Z,35.14
2018-05-18T12:34:55.904Z,35.14
2018-05-18T12:36:04.904Z,35.24
2018-05-18T12:37:14.366Z,35.14
2018-05-18T12:38:24.061Z,35.24
2018-05-18T12:39:34.017Z,35.14
2018-05-18T12:40:42.987Z,35.14
2018-05-18T12:41:52.623Z,35.14
2018-05-18T12:43:02.134Z,35.24
2018-05-18T12:44:11.395Z,35.14
2018-05-18T12:45:20.848Z,35.24
2018-05-18T12:46:30.066Z,35.14
2018-05-18T12:47:39.424Z,35.34
2018-05-18T12:48:49.153Z,35.16
2018-05-18T12:49:58.377Z,35.14
2018-05-18T12:51:08.088Z,35.24
2018-05-18T12:52:17.952Z,35.14
2018-05-18T12:53:27.451Z,35.24
2018-05-18T12:54:36.669Z,35.14
2018-05-18T12:55:46.496Z,35.05
2018-05-18T12:56:56.068Z,35.24
2018-05-18T12:58:05.109Z,35.14
2018-05-18T12:59:14.870Z,35.05
2018-05-18T13:00:24.395Z,35.24
2018-05-18T13:01:33.846Z,35.24
2018-05-18T13:02:43.558Z,35.24
2018-05-18T13:03:53.073Z,35.05
2018-05-18T13:05:02.562Z,35.24
2018-05-18T13:06:12.130Z,34.97
2018-05-18T13:07:21.851Z,35.05
2018-05-18T13:08:31.293Z,34.97
2018-05-18T13:09:40.797Z,35.05
2018-05-18T13:10:50.261Z,34.97
2018-05-18T13:12:00.142Z,35.05
2018-05-18T13:13:09.139Z,34.95
2018-05-18T13:14:18.588Z,34.97
2018-05-18T13:15:28.302Z,35.06
2018-05-18T13:16:37.807Z,35.16
2018-05-18T13:17:47.587Z,35.26
2018-05-18T13:18:56.755Z,35.05
2018-05-18T13:20:05.956Z,35.06
2018-05-18T13:21:15.645Z,35.05
2018-05-18T13:22:24.812Z,35.06
2018-05-18T13:23:34.278Z,35.05
2018-05-18T13:24:44.017Z,35.05
2018-05-18T13:25:54.098Z,35.05
2018-05-18T13:27:03.295Z,34.97
2018-05-18T13:28:12.565Z,35.05
2018-05-18T13:29:22.300Z,35.16
2018-05-18T13:30:31.877Z,35.16
2018-05-18T13:31:42.085Z,35.16
2018-05-18T13:32:51.529Z,35.16
2018-05-18T13:34:01.299Z,35.06
2018-05-18T13:35:10.786Z,35.16
2018-05-18T13:36:20.502Z,35.06
2018-05-18T13:37:30.233Z,35.16
2018-05-18T13:38:40.085Z,35.16
2018-05-18T13:39:49.717Z,35.16
2018-05-18T13:40:58.895Z,35.16
2018-05-18T13:42:07.817Z,35.06
2018-05-18T13:43:17.054Z,35.16
2018-05-18T13:44:26.840Z,35.16
2018-05-18T13:45:36.460Z,35.16
2018-05-18T13:46:46.161Z,35.06
2018-05-18T13:47:55.623Z,35.16
2018-05-18T13:49:04.608Z,35.06
2018-05-18T13:50:14.288Z,35.16
2018-05-18T13:51:24.002Z,35.16
2018-05-18T13:52:33.511Z,35.16
2018-05-18T13:53:43.497Z,35.06
2018-05-18T13:54:52.941Z,35.06
2018-05-18T13:56:02.419Z,35.06
2018-05-18T13:57:12.208Z,35.06
2018-05-18T13:58:21.959Z,35.26
2018-05-18T13:59:31.636Z,35.16
2018-05-18T14:00:41.066Z,35.06
2018-05-18T14:01:50.527Z,35.16
2018-05-18T14:03:00.350Z,35.16
2018-05-18T14:04:10.109Z,35.16
2018-05-18T14:05:19.301Z,35.06
2018-05-18T14:06:28.995Z,35.16
2018-05-18T14:07:38.433Z,35.16
2018-05-18T14:08:47.692Z,35.06
2018-05-18T14:09:56.883Z,35.16
2018-05-18T14:11:06.100Z,34.97
2018-05-18T14:12:15.135Z,35.06
2018-05-18T14:13:24.334Z,35.16
2018-05-18T14:14:33.255Z,35.06
2018-05-18T14:15:42.485Z,35.06
2018-05-18T14:16:51.713Z,35.16
2018-05-18T14:18:00.633Z,35.26
2018-05-18T14:19:10.339Z,35.06
2018-05-18T14:20:19.544Z,35.16
2018-05-18T14:21:29.300Z,35.16
2018-05-18T14:22:39.054Z,34.97
2018-05-18T14:23:48.756Z,35.26
2018-05-18T14:24:57.771Z,35.16
2018-05-18T14:26:06.755Z,35.16
2018-05-18T14:27:15.748Z,35.16
2018-05-18T14:28:25.496Z,35.26
2018-05-18T14:29:34.960Z,35.16
2018-05-18T14:30:44.404Z,35.06
2018-05-18T14:31:53.994Z,35.06
2018-05-18T14:33:03.600Z,35.26
2018-05-18T14:34:13.005Z,35.16
2018-05-18T14:35:22.228Z,35.26
2018-05-18T14:36:31.400Z,35.16
2018-05-18T14:37:41.116Z,35.06
2018-05-18T14:38:50.149Z,35.06
2018-05-18T14:39:59.585Z,35.16
2018-05-18T14:41:08.500Z,35.16
2018-05-18T14:42:17.416Z,35.16
2018-05-18T14:43:26.844Z,35.16
2018-05-18T14:44:36.006Z,34.97
2018-05-18T14:45:44.933Z,35.06
2018-05-18T14:46:54.614Z,35.16
2018-05-18T14:48:04.062Z,34.97
2018-05-18T14:49:13.935Z,34.97
2018-05-18T14:50:23.415Z,35.16
2018-05-18T14:51:33.368Z,35.26
2018-05-18T14:52:43.367Z,35.06
2018-05-18T14:53:53.128Z,35.16
2018-05-18T14:55:02.585Z,35.26
2018-05-18T14:56:12.292Z,35.36
2018-05-18T14:57:22.313Z,35.16
2018-05-18T14:58:31.528Z,35.26
2018-05-18T14:59:40.858Z,35.16